sensor_id;sensor_type;location;lat;lon;timestamp;pressure;altitude;pressure_sealevel;temperature;humidity
36454;BME280;22478;51.740;-1.314;2023-05-01T00:01:43;100505.89;;;5.71;100.00
36454;BME280;22478;51.740;-1.314;2023-05-01T00:04:11;100498.54;;;7.55;100.00
36454;BME280;22478;51.740;-1.314;2023-05-01T00:06:38;100499.25;;;7.07;100.00
36454;BME280;22478;51.740;-1.314;2023-05-01T00:09:05;100501.76;;;7.17;100.00
36454;BME280;22478;51.740;-1.314;2023-05-01T00:11:34;100496.73;;;6.13;100.00
36454;BME280;22478;51.740;-1.314;2023-05-01T00:14:01;100493.95;;;6.96;100.00
36454;BME280;22478;51.740;-1.314;2023-05-01T00:16:28;100489.39;;;7.85;100.00
36454;BME280;22478;51.740;-1.314;2023-05-01T00:18:55;100484.52;;;8.23;100.00
36454;BME280;22478;51.740;-1.314;2023-05-01T00:21:22;100485.33;;;7.75;100.00
36454;BME280;22478;51.740;-1.314;2023-05-01T00:23:50;100481.76;;;9.27;100.00
36454;BME280;22478;51.740;-1.314;2023-05-01T00:26:17;100480.67;;;7.14;100.00
36454;BME280;22478;51.740;-1.314;2023-05-01T00:28:45;100472.80;;;8.60;100.00
36454;BME280;22478;51.740;-1.314;2023-05-01T00:31:12;100469.38;;;10.10;100.00
36454;BME280;22478;51.740;-1.314;2023-05-01T00:33:39;100470.78;;;8.65;100.00
36454;BME280;22478;51.740;-1.314;2023-05-01T00:36:07;100460.59;;;10.05;100.00
36454;BME280;22478;51.740;-1.314;2023-05-01T00:38:34;100458.70;;;10.24;100.00
36454;BME280;22478;51.740;-1.314;2023-05-01T00:41:01;100451.92;;;10.14;100.00
36454;BME280;22478;51.740;-1.314;2023-05-01T00:43:28;100451.99;;;10.15;100.00
36454;BME280;22478;51.740;-1.314;2023-05-01T00:45:56;100453.22;;;9.93;100.00
36454;BME280;22478;51.740;-1.314;2023-05-01T00:48:23;100440.08;;;10.18;100.00
36454;BME280;22478;51.740;-1.314;2023-05-01T00:50:52;100437.83;;;11.07;100.00
36454;BME280;22478;51.740;-1.314;2023-05-01T00:53:20;100432.93;;;9.97;100.00
36454;BME280;22478;51.740;-1.314;2023-05-01T00:55:48;100434.06;;;10.71;100.00
36454;BME280;22478;51.740;-1.314;2023-05-01T00:58:16;100435.70;;;10.04;100.00
36454;BME280;22478;51.740;-1.314;2023-05-01T01:00:44;100437.96;;;9.15;100.00
36454;BME280;22478;51.740;-1.314;2023-05-01T01:03:11;100437.72;;;10.82;100.00
36454;BME280;22478;51.740;-1.314;2023-05-01T01:05:48;100457.18;;;5.57;100.00
36454;BME280;22478;51.740;-1.314;2023-05-01T01:08:24;100455.61;;;5.42;100.00
36454;BME280;22478;51.740;-1.314;2023-05-01T01:10:58;100447.22;;;7.72;100.00
36454;BME280;22478;51.740;-1.314;2023-05-01T01:13:30;100447.74;;;6.01;100.00
36454;BME280;22478;51.740;-1.314;2023-05-01T01:16:04;100454.39;;;5.34;100.00
36454;BME280;22478;51.740;-1.314;2023-05-01T01:18:40;100451.79;;;6.75;100.00
36454;BME280;22478;51.740;-1.314;2023-05-01T01:21:14;100447.45;;;5.83;100.00
36454;BME280;22478;51.740;-1.314;2023-05-01T01:24:30;100446.49;;;4.97;100.00
36454;BME280;22478;51.740;-1.314;2023-05-01T01:27:18;100427.91;;;6.66;100.00
36454;BME280;22478;51.740;-1.314;2023-05-01T01:30:01;100422.82;;;6.12;100.00
36454;BME280;22478;51.740;-1.314;2023-05-01T01:32:53;100421.76;;;7.14;100.00
36454;BME280;22478;51.740;-1.314;2023-05-01T01:35:25;100435.42;;;5.43;100.00
36454;BME280;22478;51.740;-1.314;2023-05-01T01:37:59;100441.62;;;4.16;100.00
36454;BME280;22478;51.740;-1.314;2023-05-01T01:40:34;100439.45;;;3.48;100.00
36454;BME280;22478;51.740;-1.314;2023-05-01T01:43:05;100421.23;;;6.61;100.00
36454;BME280;22478;51.740;-1.314;2023-05-01T01:45:38;100417.27;;;5.57;100.00
36454;BME280;22478;51.740;-1.314;2023-05-01T01:48:08;100432.22;;;3.00;100.00
36454;BME280;22478;51.740;-1.314;2023-05-01T01:50:37;100443.47;;;2.15;100.00
36454;BME280;22478;51.740;-1.314;2023-05-01T01:53:08;100438.74;;;2.11;100.00
36454;BME280;22478;51.740;-1.314;2023-05-01T01:55:37;100437.90;;;2.63;100.00
36454;BME280;22478;51.740;-1.314;2023-05-01T01:58:06;100424.61;;;5.59;100.00
36454;BME280;22478;51.740;-1.314;2023-05-01T02:00:36;100425.74;;;2.97;100.00
36454;BME280;22478;51.740;-1.314;2023-05-01T02:03:04;100425.26;;;4.25;100.00
36454;BME280;22478;51.740;-1.314;2023-05-01T02:05:34;100420.54;;;3.56;100.00
36454;BME280;22478;51.740;-1.314;2023-05-01T02:08:03;100404.73;;;6.98;100.00
36454;BME280;22478;51.740;-1.314;2023-05-01T02:10:31;100404.97;;;6.51;100.00
36454;BME280;22478;51.740;-1.314;2023-05-01T02:13:01;100400.70;;;5.95;100.00
36454;BME280;22478;51.740;-1.314;2023-05-01T02:15:29;100392.21;;;8.17;100.00
36454;BME280;22478;51.740;-1.314;2023-05-01T02:17:58;100389.19;;;5.78;100.00
36454;BME280;22478;51.740;-1.314;2023-05-01T02:20:27;100377.90;;;7.07;100.00
36454;BME280;22478;51.740;-1.314;2023-05-01T02:22:56;100387.52;;;5.31;100.00
36454;BME280;22478;51.740;-1.314;2023-05-01T02:25:25;100378.78;;;7.23;100.00
36454;BME280;22478;51.740;-1.314;2023-05-01T02:27:55;100371.88;;;8.01;100.00
36454;BME280;22478;51.740;-1.314;2023-05-01T02:30:23;100370.31;;;7.47;100.00
36454;BME280;22478;51.740;-1.314;2023-05-01T02:32:51;100365.67;;;8.36;100.00
36454;BME280;22478;51.740;-1.314;2023-05-01T02:35:18;100364.73;;;7.85;100.00
36454;BME280;22478;51.740;-1.314;2023-05-01T02:37:46;100367.90;;;7.10;100.00
36454;BME280;22478;51.740;-1.314;2023-05-01T02:40:14;100365.87;;;8.55;100.00
36454;BME280;22478;51.740;-1.314;2023-05-01T02:42:41;100364.23;;;7.77;100.00
36454;BME280;22478;51.740;-1.314;2023-05-01T02:45:17;100361.83;;;7.48;100.00
36454;BME280;22478;51.740;-1.314;2023-05-01T02:47:48;100362.30;;;7.15;100.00
36454;BME280;22478;51.740;-1.314;2023-05-01T02:50:17;100358.91;;;6.29;100.00
36454;BME280;22478;51.740;-1.314;2023-05-01T02:52:45;100354.88;;;7.90;100.00
36454;BME280;22478;51.740;-1.314;2023-05-01T02:55:14;100361.18;;;6.18;100.00
36454;BME280;22478;51.740;-1.314;2023-05-01T02:57:41;100358.66;;;5.21;100.00
36454;BME280;22478;51.740;-1.314;2023-05-01T03:00:09;100356.01;;;7.41;100.00
36454;BME280;22478;51.740;-1.314;2023-05-01T03:02:36;100365.69;;;4.09;100.00
36454;BME280;22478;51.740;-1.314;2023-05-01T03:05:04;100355.79;;;6.58;100.00
36454;BME280;22478;51.740;-1.314;2023-05-01T03:07:31;100358.13;;;5.02;100.00
36454;BME280;22478;51.740;-1.314;2023-05-01T03:09:58;100355.08;;;5.93;100.00
36454;BME280;22478;51.740;-1.314;2023-05-01T03:12:25;100352.47;;;6.47;100.00
36454;BME280;22478;51.740;-1.314;2023-05-01T03:14:52;100355.20;;;5.67;100.00
36454;BME280;22478;51.740;-1.314;2023-05-01T03:17:19;100348.15;;;7.80;100.00
36454;BME280;22478;51.740;-1.314;2023-05-01T03:19:47;100346.49;;;7.93;100.00
36454;BME280;22478;51.740;-1.314;2023-05-01T03:22:14;100342.71;;;7.94;100.00
36454;BME280;22478;51.740;-1.314;2023-05-01T03:24:41;100338.50;;;8.32;100.00
36454;BME280;22478;51.740;-1.314;2023-05-01T03:27:09;100335.87;;;9.10;100.00
36454;BME280;22478;51.740;-1.314;2023-05-01T03:29:36;100334.42;;;8.72;100.00
36454;BME280;22478;51.740;-1.314;2023-05-01T03:32:04;100333.01;;;7.27;100.00
36454;BME280;22478;51.740;-1.314;2023-05-01T03:34:31;100330.56;;;8.57;100.00
36454;BME280;22478;51.740;-1.314;2023-05-01T03:36:58;100327.81;;;7.97;100.00
36454;BME280;22478;51.740;-1.314;2023-05-01T03:39:25;100326.39;;;8.09;100.00
36454;BME280;22478;51.740;-1.314;2023-05-01T03:41:52;100330.93;;;6.15;100.00
36454;BME280;22478;51.740;-1.314;2023-05-01T03:44:19;100327.41;;;7.76;100.00
36454;BME280;22478;51.740;-1.314;2023-05-01T03:46:46;100330.98;;;6.22;100.00
36454;BME280;22478;51.740;-1.314;2023-05-01T03:49:14;100333.63;;;6.62;100.00
36454;BME280;22478;51.740;-1.314;2023-05-01T03:51:41;100336.61;;;5.54;100.00
36454;BME280;22478;51.740;-1.314;2023-05-01T03:54:08;100330.15;;;7.01;100.00
36454;BME280;22478;51.740;-1.314;2023-05-01T03:56:36;100330.32;;;6.24;100.00
36454;BME280;22478;51.740;-1.314;2023-05-01T03:59:03;100330.62;;;7.81;100.00
36454;BME280;22478;51.740;-1.314;2023-05-01T04:01:30;100327.30;;;8.06;100.00
36454;BME280;22478;51.740;-1.314;2023-05-01T04:03:58;100330.02;;;8.08;100.00
36454;BME280;22478;51.740;-1.314;2023-05-01T04:06:25;100327.39;;;6.11;100.00
36454;BME280;22478;51.740;-1.314;2023-05-01T04:08:53;100328.71;;;6.08;100.00
36454;BME280;22478;51.740;-1.314;2023-05-01T04:11:20;100336.69;;;5.06;100.00
36454;BME280;22478;51.740;-1.314;2023-05-01T04:13:47;100338.20;;;4.65;100.00
36454;BME280;22478;51.740;-1.314;2023-05-01T04:16:14;100341.82;;;4.36;100.00
36454;BME280;22478;51.740;-1.314;2023-05-01T04:18:41;100343.15;;;4.26;100.00
36454;BME280;22478;51.740;-1.314;2023-05-01T04:21:09;100345.94;;;4.12;100.00
36454;BME280;22478;51.740;-1.314;2023-05-01T04:23:36;100343.71;;;4.08;100.00
36454;BME280;22478;51.740;-1.314;2023-05-01T04:26:03;100350.03;;;3.86;100.00
36454;BME280;22478;51.740;-1.314;2023-05-01T04:28:30;100338.68;;;5.57;100.00
36454;BME280;22478;51.740;-1.314;2023-05-01T04:30:58;100330.76;;;5.83;100.00
36454;BME280;22478;51.740;-1.314;2023-05-01T04:33:24;100349.16;;;3.57;100.00
36454;BME280;22478;51.740;-1.314;2023-05-01T04:35:51;100341.01;;;6.48;100.00
36454;BME280;22478;51.740;-1.314;2023-05-01T04:38:19;100337.60;;;6.29;100.00
36454;BME280;22478;51.740;-1.314;2023-05-01T04:40:46;100342.11;;;5.67;100.00
36454;BME280;22478;51.740;-1.314;2023-05-01T04:43:14;100341.55;;;7.30;100.00
36454;BME280;22478;51.740;-1.314;2023-05-01T04:45:41;100355.90;;;3.55;100.00
36454;BME280;22478;51.740;-1.314;2023-05-01T04:48:08;100363.83;;;3.73;100.00
36454;BME280;22478;51.740;-1.314;2023-05-01T04:50:35;100370.69;;;1.30;100.00
36454;BME280;22478;51.740;-1.314;2023-05-01T04:53:03;100355.63;;;5.17;100.00
36454;BME280;22478;51.740;-1.314;2023-05-01T04:55:30;100357.56;;;3.88;100.00
36454;BME280;22478;51.740;-1.314;2023-05-01T04:57:58;100361.61;;;3.41;100.00
36454;BME280;22478;51.740;-1.314;2023-05-01T05:00:25;100348.72;;;6.69;100.00
36454;BME280;22478;51.740;-1.314;2023-05-01T05:02:52;100369.26;;;3.91;100.00
36454;BME280;22478;51.740;-1.314;2023-05-01T05:05:20;100373.47;;;4.59;100.00
36454;BME280;22478;51.740;-1.314;2023-05-01T05:07:47;100386.54;;;1.54;100.00
36454;BME280;22478;51.740;-1.314;2023-05-01T05:10:14;100383.20;;;4.65;100.00
36454;BME280;22478;51.740;-1.314;2023-05-01T05:12:42;100388.37;;;3.18;100.00
36454;BME280;22478;51.740;-1.314;2023-05-01T05:15:10;100391.54;;;3.40;100.00
36454;BME280;22478;51.740;-1.314;2023-05-01T05:17:37;100391.78;;;3.38;100.00
36454;BME280;22478;51.740;-1.314;2023-05-01T05:20:05;100389.04;;;3.21;100.00
36454;BME280;22478;51.740;-1.314;2023-05-01T05:22:35;100387.46;;;3.87;100.00
36454;BME280;22478;51.740;-1.314;2023-05-01T05:25:02;100391.69;;;2.66;100.00
36454;BME280;22478;51.740;-1.314;2023-05-01T05:27:30;100389.77;;;2.48;100.00
36454;BME280;22478;51.740;-1.314;2023-05-01T05:29:57;100389.50;;;3.04;100.00
36454;BME280;22478;51.740;-1.314;2023-05-01T05:32:25;100383.61;;;4.82;100.00
36454;BME280;22478;51.740;-1.314;2023-05-01T05:34:52;100374.59;;;6.78;100.00
36454;BME280;22478;51.740;-1.314;2023-05-01T05:37:20;100368.15;;;5.73;100.00
36454;BME280;22478;51.740;-1.314;2023-05-01T05:39:47;100372.88;;;5.66;100.00
36454;BME280;22478;51.740;-1.314;2023-05-01T05:42:14;100382.59;;;4.28;100.00
36454;BME280;22478;51.740;-1.314;2023-05-01T05:44:41;100377.65;;;5.92;100.00
36454;BME280;22478;51.740;-1.314;2023-05-01T05:47:09;100382.57;;;4.18;100.00
36454;BME280;22478;51.740;-1.314;2023-05-01T05:49:36;100385.43;;;4.65;100.00
36454;BME280;22478;51.740;-1.314;2023-05-01T05:52:03;100379.58;;;4.57;100.00
36454;BME280;22478;51.740;-1.314;2023-05-01T05:54:31;100382.84;;;5.95;100.00
36454;BME280;22478;51.740;-1.314;2023-05-01T05:56:58;100388.99;;;4.85;100.00
36454;BME280;22478;51.740;-1.314;2023-05-01T05:59:25;100397.90;;;3.55;100.00
36454;BME280;22478;51.740;-1.314;2023-05-01T06:01:52;100396.27;;;4.66;100.00
36454;BME280;22478;51.740;-1.314;2023-05-01T06:04:20;100393.31;;;4.40;100.00
36454;BME280;22478;51.740;-1.314;2023-05-01T06:06:47;100386.34;;;6.33;100.00
36454;BME280;22478;51.740;-1.314;2023-05-01T06:09:15;100384.46;;;4.84;100.00
36454;BME280;22478;51.740;-1.314;2023-05-01T06:11:42;100380.54;;;6.09;100.00
36454;BME280;22478;51.740;-1.314;2023-05-01T06:14:09;100383.25;;;5.64;100.00
36454;BME280;22478;51.740;-1.314;2023-05-01T06:16:36;100385.57;;;4.96;100.00
36454;BME280;22478;51.740;-1.314;2023-05-01T06:19:03;100371.89;;;7.96;100.00
36454;BME280;22478;51.740;-1.314;2023-05-01T06:21:30;100374.85;;;7.89;100.00
36454;BME280;22478;51.740;-1.314;2023-05-01T06:23:58;100382.46;;;3.76;100.00
36454;BME280;22478;51.740;-1.314;2023-05-01T06:26:26;100384.77;;;6.15;100.00
36454;BME280;22478;51.740;-1.314;2023-05-01T06:28:53;100378.92;;;7.50;100.00
36454;BME280;22478;51.740;-1.314;2023-05-01T06:31:20;100379.55;;;8.03;100.00
36454;BME280;22478;51.740;-1.314;2023-05-01T06:33:48;100383.96;;;7.18;100.00
36454;BME280;22478;51.740;-1.314;2023-05-01T06:36:15;100381.22;;;8.21;100.00
36454;BME280;22478;51.740;-1.314;2023-05-01T06:38:42;100382.87;;;7.33;100.00
36454;BME280;22478;51.740;-1.314;2023-05-01T06:41:10;100388.10;;;7.29;100.00
36454;BME280;22478;51.740;-1.314;2023-05-01T06:43:38;100390.12;;;6.38;100.00
36454;BME280;22478;51.740;-1.314;2023-05-01T06:46:05;100393.72;;;5.95;100.00
36454;BME280;22478;51.740;-1.314;2023-05-01T06:48:32;100397.34;;;5.45;100.00
36454;BME280;22478;51.740;-1.314;2023-05-01T06:51:00;100397.93;;;5.60;100.00
36454;BME280;22478;51.740;-1.314;2023-05-01T06:53:27;100409.98;;;3.81;100.00
36454;BME280;22478;51.740;-1.314;2023-05-01T06:55:55;100415.66;;;4.17;100.00
36454;BME280;22478;51.740;-1.314;2023-05-01T06:58:22;100400.84;;;6.75;100.00
36454;BME280;22478;51.740;-1.314;2023-05-01T07:00:51;100408.50;;;4.89;100.00
36454;BME280;22478;51.740;-1.314;2023-05-01T07:03:18;100402.33;;;7.25;100.00
36454;BME280;22478;51.740;-1.314;2023-05-01T07:05:45;100409.77;;;6.26;100.00
36454;BME280;22478;51.740;-1.314;2023-05-01T07:08:12;100416.06;;;5.22;100.00
36454;BME280;22478;51.740;-1.314;2023-05-01T07:10:39;100418.58;;;4.85;100.00
36454;BME280;22478;51.740;-1.314;2023-05-01T07:13:07;100413.91;;;5.76;100.00
36454;BME280;22478;51.740;-1.314;2023-05-01T07:15:34;100415.59;;;6.54;100.00
36454;BME280;22478;51.740;-1.314;2023-05-01T07:18:01;100413.86;;;6.13;100.00
36454;BME280;22478;51.740;-1.314;2023-05-01T07:20:29;100422.40;;;4.36;100.00
36454;BME280;22478;51.740;-1.314;2023-05-01T07:22:55;100422.07;;;5.51;100.00
36454;BME280;22478;51.740;-1.314;2023-05-01T07:25:23;100421.41;;;6.56;100.00
36454;BME280;22478;51.740;-1.314;2023-05-01T07:27:50;100419.41;;;7.02;100.00
36454;BME280;22478;51.740;-1.314;2023-05-01T07:30:18;100423.15;;;6.09;100.00
36454;BME280;22478;51.740;-1.314;2023-05-01T07:32:45;100431.63;;;6.04;100.00
36454;BME280;22478;51.740;-1.314;2023-05-01T07:35:12;100431.11;;;6.49;100.00
36454;BME280;22478;51.740;-1.314;2023-05-01T07:37:40;100435.12;;;6.25;100.00
36454;BME280;22478;51.740;-1.314;2023-05-01T07:40:07;100437.31;;;6.41;100.00
36454;BME280;22478;51.740;-1.314;2023-05-01T07:42:35;100437.29;;;4.76;100.00
36454;BME280;22478;51.740;-1.314;2023-05-01T07:45:02;100431.25;;;6.56;100.00
36454;BME280;22478;51.740;-1.314;2023-05-01T07:47:29;100442.48;;;3.88;100.00
36454;BME280;22478;51.740;-1.314;2023-05-01T07:49:57;100432.81;;;7.50;100.00
36454;BME280;22478;51.740;-1.314;2023-05-01T07:52:24;100445.23;;;4.98;100.00
36454;BME280;22478;51.740;-1.314;2023-05-01T07:54:51;100440.78;;;5.68;100.00
36454;BME280;22478;51.740;-1.314;2023-05-01T07:57:18;100441.51;;;5.45;100.00
36454;BME280;22478;51.740;-1.314;2023-05-01T07:59:46;100440.12;;;6.09;100.00
36454;BME280;22478;51.740;-1.314;2023-05-01T08:02:16;100434.30;;;7.50;100.00
36454;BME280;22478;51.740;-1.314;2023-05-01T08:04:43;100432.84;;;9.38;100.00
36454;BME280;22478;51.740;-1.314;2023-05-01T08:07:10;100424.53;;;10.59;100.00
36454;BME280;22478;51.740;-1.314;2023-05-01T08:09:37;100443.11;;;5.44;100.00
36454;BME280;22478;51.740;-1.314;2023-05-01T08:12:04;100434.17;;;7.95;100.00
36454;BME280;22478;51.740;-1.314;2023-05-01T08:14:32;100433.22;;;6.99;100.00
36454;BME280;22478;51.740;-1.314;2023-05-01T08:16:59;100438.40;;;6.24;100.00
36454;BME280;22478;51.740;-1.314;2023-05-01T08:19:26;100428.79;;;8.09;100.00
36454;BME280;22478;51.740;-1.314;2023-05-01T08:21:54;100436.20;;;5.53;100.00
36454;BME280;22478;51.740;-1.314;2023-05-01T08:24:21;100436.33;;;5.88;100.00
36454;BME280;22478;51.740;-1.314;2023-05-01T08:26:49;100436.91;;;7.00;100.00
36454;BME280;22478;51.740;-1.314;2023-05-01T08:29:17;100444.86;;;5.68;100.00
36454;BME280;22478;51.740;-1.314;2023-05-01T08:31:44;100437.54;;;6.41;100.00
36454;BME280;22478;51.740;-1.314;2023-05-01T08:34:11;100440.55;;;5.99;100.00
36454;BME280;22478;51.740;-1.314;2023-05-01T08:36:39;100438.59;;;7.80;100.00
36454;BME280;22478;51.740;-1.314;2023-05-01T08:39:06;100435.54;;;7.59;100.00
36454;BME280;22478;51.740;-1.314;2023-05-01T08:41:34;100433.43;;;7.80;100.00
36454;BME280;22478;51.740;-1.314;2023-05-01T08:44:05;100436.91;;;7.48;100.00
36454;BME280;22478;51.740;-1.314;2023-05-01T08:46:42;100435.59;;;9.92;100.00
36454;BME280;22478;51.740;-1.314;2023-05-01T08:49:13;100438.71;;;7.69;100.00
36454;BME280;22478;51.740;-1.314;2023-05-01T08:51:44;100444.11;;;7.22;100.00
36454;BME280;22478;51.740;-1.314;2023-05-01T08:54:13;100451.32;;;6.32;100.00
36454;BME280;22478;51.740;-1.314;2023-05-01T08:56:42;100449.04;;;8.18;100.00
36454;BME280;22478;51.740;-1.314;2023-05-01T08:59:10;100455.68;;;6.80;100.00
36454;BME280;22478;51.740;-1.314;2023-05-01T09:01:40;100456.71;;;7.67;100.00
36454;BME280;22478;51.740;-1.314;2023-05-01T09:04:08;100460.24;;;7.20;100.00
36454;BME280;22478;51.740;-1.314;2023-05-01T09:06:36;100461.60;;;7.40;100.00
36454;BME280;22478;51.740;-1.314;2023-05-01T09:09:04;100464.57;;;7.36;100.00
36454;BME280;22478;51.740;-1.314;2023-05-01T09:11:31;100464.21;;;7.74;100.00
36454;BME280;22478;51.740;-1.314;2023-05-01T09:13:59;100467.27;;;6.90;100.00
36454;BME280;22478;51.740;-1.314;2023-05-01T09:16:28;100468.68;;;9.57;100.00
36454;BME280;22478;51.740;-1.314;2023-05-01T09:18:56;100475.84;;;6.80;100.00
36454;BME280;22478;51.740;-1.314;2023-05-01T09:21:25;100480.79;;;7.28;100.00
36454;BME280;22478;51.740;-1.314;2023-05-01T09:23:53;100479.62;;;6.89;100.00
36454;BME280;22478;51.740;-1.314;2023-05-01T09:26:21;100475.42;;;10.11;100.00
36454;BME280;22478;51.740;-1.314;2023-05-01T09:28:48;100478.36;;;6.59;100.00
36454;BME280;22478;51.740;-1.314;2023-05-01T09:31:24;100475.75;;;7.04;100.00
36454;BME280;22478;51.740;-1.314;2023-05-01T09:33:53;100476.60;;;7.18;100.00
36454;BME280;22478;51.740;-1.314;2023-05-01T09:36:22;100472.42;;;8.11;100.00
36454;BME280;22478;51.740;-1.314;2023-05-01T09:38:49;100481.61;;;7.58;100.00
36454;BME280;22478;51.740;-1.314;2023-05-01T09:41:17;100483.34;;;7.82;100.00
36454;BME280;22478;51.740;-1.314;2023-05-01T09:43:48;100482.43;;;9.76;100.00
36454;BME280;22478;51.740;-1.314;2023-05-01T09:46:16;100485.58;;;7.75;100.00
36454;BME280;22478;51.740;-1.314;2023-05-01T09:48:53;100482.30;;;9.66;100.00
36454;BME280;22478;51.740;-1.314;2023-05-01T09:51:23;100481.07;;;9.37;100.00
36454;BME280;22478;51.740;-1.314;2023-05-01T09:53:50;100487.44;;;8.82;100.00
36454;BME280;22478;51.740;-1.314;2023-05-01T09:56:18;100475.55;;;10.25;100.00
36454;BME280;22478;51.740;-1.314;2023-05-01T09:58:46;100475.89;;;11.10;100.00
36454;BME280;22478;51.740;-1.314;2023-05-01T10:01:14;100478.89;;;9.42;100.00
36454;BME280;22478;51.740;-1.314;2023-05-01T10:03:43;100471.68;;;11.50;100.00
36454;BME280;22478;51.740;-1.314;2023-05-01T10:06:10;100469.45;;;10.87;100.00
36454;BME280;22478;51.740;-1.314;2023-05-01T10:08:46;100472.80;;;10.82;100.00
36454;BME280;22478;51.740;-1.314;2023-05-01T10:11:15;100470.78;;;12.16;100.00
36454;BME280;22478;51.740;-1.314;2023-05-01T10:13:42;100464.51;;;13.87;86.46
36454;BME280;22478;51.740;-1.314;2023-05-01T10:16:28;100460.90;;;12.43;94.32
36454;BME280;22478;51.740;-1.314;2023-05-01T10:18:56;100464.40;;;12.19;90.51
36454;BME280;22478;51.740;-1.314;2023-05-01T10:21:23;100464.41;;;12.65;91.25
36454;BME280;22478;51.740;-1.314;2023-05-01T10:23:51;100479.54;;;7.10;100.00
36454;BME280;22478;51.740;-1.314;2023-05-01T10:26:19;100481.03;;;9.21;100.00
36454;BME280;22478;51.740;-1.314;2023-05-01T10:28:47;100486.53;;;9.35;100.00
36454;BME280;22478;51.740;-1.314;2023-05-01T10:31:15;100490.93;;;8.08;100.00
36454;BME280;22478;51.740;-1.314;2023-05-01T10:33:43;100490.74;;;8.03;100.00
36454;BME280;22478;51.740;-1.314;2023-05-01T10:36:13;100490.56;;;7.06;100.00
36454;BME280;22478;51.740;-1.314;2023-05-01T10:38:42;100490.12;;;8.20;100.00
36454;BME280;22478;51.740;-1.314;2023-05-01T10:41:10;100486.88;;;10.09;100.00
36454;BME280;22478;51.740;-1.314;2023-05-01T10:43:37;100496.26;;;8.74;100.00
36454;BME280;22478;51.740;-1.314;2023-05-01T10:46:26;100497.60;;;8.60;100.00
36454;BME280;22478;51.740;-1.314;2023-05-01T10:48:55;100499.22;;;8.18;100.00
36454;BME280;22478;51.740;-1.314;2023-05-01T10:51:23;100501.02;;;9.12;100.00
36454;BME280;22478;51.740;-1.314;2023-05-01T10:54:22;100505.56;;;7.45;100.00
36454;BME280;22478;51.740;-1.314;2023-05-01T10:56:50;100512.09;;;7.04;100.00
36454;BME280;22478;51.740;-1.314;2023-05-01T10:59:17;100509.83;;;7.84;100.00
36454;BME280;22478;51.740;-1.314;2023-05-01T11:01:45;100505.33;;;10.22;100.00
36454;BME280;22478;51.740;-1.314;2023-05-01T11:04:47;100502.53;;;11.48;100.00
36454;BME280;22478;51.740;-1.314;2023-05-01T11:07:16;100502.45;;;11.70;100.00
36454;BME280;22478;51.740;-1.314;2023-05-01T11:09:44;100499.73;;;13.66;97.48
36454;BME280;22478;51.740;-1.314;2023-05-01T11:12:12;100501.61;;;12.33;100.00
36454;BME280;22478;51.740;-1.314;2023-05-01T11:15:12;100501.64;;;12.24;99.71
36454;BME280;22478;51.740;-1.314;2023-05-01T11:17:51;100508.21;;;9.07;100.00
36454;BME280;22478;51.740;-1.314;2023-05-01T11:20:51;100498.62;;;10.48;100.00
36454;BME280;22478;51.740;-1.314;2023-05-01T11:23:20;100506.57;;;9.38;100.00
36454;BME280;22478;51.740;-1.314;2023-05-01T11:25:47;100507.07;;;9.66;100.00
36454;BME280;22478;51.740;-1.314;2023-05-01T11:28:18;100494.32;;;11.10;98.47
36454;BME280;22478;51.740;-1.314;2023-05-01T11:30:46;100507.05;;;8.50;100.00
36454;BME280;22478;51.740;-1.314;2023-05-01T11:33:13;100505.60;;;8.85;100.00
36454;BME280;22478;51.740;-1.314;2023-05-01T11:35:56;100504.78;;;8.50;100.00
36454;BME280;22478;51.740;-1.314;2023-05-01T11:38:23;100510.31;;;9.14;100.00
36454;BME280;22478;51.740;-1.314;2023-05-01T11:40:53;100510.62;;;8.99;100.00
36454;BME280;22478;51.740;-1.314;2023-05-01T11:43:21;100509.10;;;7.60;100.00
36454;BME280;22478;51.740;-1.314;2023-05-01T11:45:51;100511.89;;;10.60;100.00
36454;BME280;22478;51.740;-1.314;2023-05-01T11:48:20;100511.82;;;9.17;100.00
36454;BME280;22478;51.740;-1.314;2023-05-01T11:50:48;100514.58;;;9.66;100.00
36454;BME280;22478;51.740;-1.314;2023-05-01T11:53:15;100507.73;;;10.37;100.00
36454;BME280;22478;51.740;-1.314;2023-05-01T11:55:42;100510.08;;;10.60;100.00
36454;BME280;22478;51.740;-1.314;2023-05-01T11:58:10;100511.19;;;10.46;100.00
36454;BME280;22478;51.740;-1.314;2023-05-01T12:00:39;100518.68;;;7.63;100.00
36454;BME280;22478;51.740;-1.314;2023-05-01T12:03:08;100517.06;;;8.05;100.00
36454;BME280;22478;51.740;-1.314;2023-05-01T12:05:37;100522.48;;;8.08;100.00
36454;BME280;22478;51.740;-1.314;2023-05-01T12:08:08;100527.32;;;8.52;100.00
36454;BME280;22478;51.740;-1.314;2023-05-01T12:10:36;100531.60;;;8.43;100.00
36454;BME280;22478;51.740;-1.314;2023-05-01T12:13:04;100530.57;;;8.92;100.00
36454;BME280;22478;51.740;-1.314;2023-05-01T12:15:33;100527.24;;;8.47;100.00
36454;BME280;22478;51.740;-1.314;2023-05-01T12:18:02;100530.06;;;7.89;100.00
36454;BME280;22478;51.740;-1.314;2023-05-01T12:20:38;100528.76;;;9.26;100.00
36454;BME280;22478;51.740;-1.314;2023-05-01T12:23:08;100529.99;;;9.87;100.00
36454;BME280;22478;51.740;-1.314;2023-05-01T12:25:36;100534.65;;;8.45;100.00
36454;BME280;22478;51.740;-1.314;2023-05-01T12:28:08;100536.89;;;7.97;100.00
36454;BME280;22478;51.740;-1.314;2023-05-01T12:30:36;100537.24;;;7.93;100.00
36454;BME280;22478;51.740;-1.314;2023-05-01T12:33:09;100534.42;;;9.61;100.00
36454;BME280;22478;51.740;-1.314;2023-05-01T12:35:37;100524.10;;;11.86;100.00
36454;BME280;22478;51.740;-1.314;2023-05-01T12:38:14;100524.97;;;11.42;100.00
36454;BME280;22478;51.740;-1.314;2023-05-01T12:40:50;100520.95;;;12.93;90.19
36454;BME280;22478;51.740;-1.314;2023-05-01T12:43:19;100525.14;;;11.00;97.59
36454;BME280;22478;51.740;-1.314;2023-05-01T12:45:50;100527.57;;;11.79;94.06
36454;BME280;22478;51.740;-1.314;2023-05-01T12:48:18;100524.23;;;11.73;90.34